createdAt,value
2023-04-26T00:01:55.134Z,3.15
2023-04-26T00:04:22.533Z,2.80
2023-04-26T00:06:49.521Z,3.35
2023-04-26T00:09:16.252Z,3.70
2023-04-26T00:11:42.821Z,2.65
2023-04-26T00:14:09.367Z,2.45
2023-04-26T00:16:38.065Z,3.00
2023-04-26T00:19:04.728Z,3.08
2023-04-26T00:21:31.889Z,2.63
2023-04-26T00:23:58.518Z,2.63
2023-04-26T00:26:24.987Z,2.58
2023-04-26T00:28:52.075Z,2.70
2023-04-26T00:31:19.625Z,3.10
2023-04-26T00:33:46.313Z,3.15
2023-04-26T00:36:13.400Z,4.15
2023-04-26T00:38:39.938Z,3.63
2023-04-26T00:41:06.471Z,3.22
2023-04-26T00:43:33.055Z,3.50
2023-04-26T00:45:59.736Z,2.70
2023-04-26T00:48:26.344Z,3.25
2023-04-26T00:50:53.241Z,2.92
2023-04-26T00:53:20.925Z,3.55
2023-04-26T00:55:47.782Z,3.67
2023-04-26T00:58:14.521Z,3.75
2023-04-26T01:00:41.219Z,3.40
2023-04-26T01:03:08.018Z,4.15
2023-04-26T01:05:36.761Z,3.90
2023-04-26T01:08:04.807Z,4.28
2023-04-26T01:10:38.608Z,3.60
2023-04-26T01:13:05.464Z,3.55
2023-04-26T01:15:33.489Z,3.33
2023-04-26T01:18:00.461Z,4.22
2023-04-26T01:20:27.107Z,5.60
2023-04-26T01:22:53.694Z,3.70
2023-04-26T01:25:21.394Z,3.53
2023-04-26T01:27:48.074Z,4.20
2023-04-26T01:30:14.632Z,3.30
2023-04-26T01:32:41.252Z,4.15
2023-04-26T01:35:08.181Z,3.55
2023-04-26T01:37:34.703Z,4.13
2023-04-26T01:40:01.493Z,4.05
2023-04-26T01:42:28.294Z,3.60
2023-04-26T01:44:54.833Z,4.63
2023-04-26T01:47:21.450Z,4.53
2023-04-26T01:49:47.983Z,4.47
2023-04-26T01:52:14.669Z,4.40
2023-04-26T01:54:41.322Z,4.18
2023-04-26T01:57:07.861Z,4.88
2023-04-26T01:59:34.390Z,4.68
2023-04-26T02:02:01.105Z,4.35
2023-04-26T02:04:28.771Z,4.50
2023-04-26T02:06:55.428Z,4.43
2023-04-26T02:09:22.004Z,4.13
2023-04-26T02:11:48.580Z,4.22
2023-04-26T02:14:15.814Z,4.40
2023-04-26T02:16:42.425Z,4.95
2023-04-26T02:19:10.984Z,5.30
2023-04-26T02:22:10.021Z,4.95
2023-04-26T02:24:36.606Z,4.63
2023-04-26T02:27:04.158Z,5.28
2023-04-26T02:29:43.521Z,4.50
2023-04-26T02:32:10.740Z,5.18
2023-04-26T02:34:37.715Z,4.55
2023-04-26T02:37:04.474Z,4.95
2023-04-26T02:39:31.615Z,5.35
2023-04-26T02:41:58.132Z,5.10
2023-04-26T02:44:24.735Z,4.63
2023-04-26T02:46:51.340Z,4.85
2023-04-26T02:49:17.937Z,5.25
2023-04-26T02:51:44.439Z,4.72
2023-04-26T02:54:10.986Z,5.57
2023-04-26T02:56:37.483Z,5.05
2023-04-26T02:59:04.122Z,5.22
2023-04-26T03:01:31.391Z,5.70
2023-04-26T03:03:58.170Z,6.50
2023-04-26T03:06:24.860Z,6.63
2023-04-26T03:08:51.688Z,6.07
2023-04-26T03:11:18.308Z,5.32
2023-04-26T03:13:44.941Z,6.00
2023-04-26T03:16:11.774Z,6.80
2023-04-26T03:18:38.426Z,6.35
2023-04-26T03:21:05.005Z,6.47
2023-04-26T03:23:31.533Z,6.68
2023-04-26T03:25:58.704Z,7.13
2023-04-26T03:28:25.309Z,6.63
2023-04-26T03:30:52.052Z,6.18
2023-04-26T03:33:18.540Z,7.00
2023-04-26T03:35:45.276Z,7.38
2023-04-26T03:38:12.078Z,7.38
2023-04-26T03:40:38.630Z,7.47
2023-04-26T03:43:05.676Z,6.30
2023-04-26T03:45:32.328Z,6.72
2023-04-26T03:47:58.958Z,7.50
2023-04-26T03:50:25.709Z,6.47
2023-04-26T03:52:52.292Z,6.63
2023-04-26T03:55:18.827Z,7.32
2023-04-26T03:57:45.386Z,7.13
2023-04-26T04:00:14.203Z,7.72
2023-04-26T04:02:42.369Z,7.32
2023-04-26T04:05:09.578Z,8.20
2023-04-26T04:07:36.599Z,7.70
2023-04-26T04:10:03.748Z,7.55
2023-04-26T04:12:30.331Z,7.63
2023-04-26T04:14:56.879Z,6.30
2023-04-26T04:17:23.618Z,7.03
2023-04-26T04:19:50.544Z,6.57
2023-04-26T04:22:17.100Z,8.05
2023-04-26T04:24:44.341Z,7.55
2023-04-26T04:27:11.680Z,6.95
2023-04-26T04:29:38.624Z,7.97
2023-04-26T04:32:05.381Z,8.77
2023-04-26T04:34:36.103Z,8.45
2023-04-26T04:37:04.240Z,8.77
2023-04-26T04:39:31.011Z,8.23
2023-04-26T04:41:58.286Z,8.52
2023-04-26T04:44:26.874Z,8.55
2023-04-26T04:46:53.886Z,8.32
2023-04-26T04:49:20.993Z,8.45
2023-04-26T04:51:48.143Z,8.52
2023-04-26T04:54:16.579Z,8.73
2023-04-26T04:56:43.963Z,9.05
2023-04-26T04:59:11.320Z,10.00
2023-04-26T05:01:38.958Z,10.02
2023-04-26T05:04:06.894Z,10.40
2023-04-26T05:06:33.635Z,11.52
2023-04-26T05:09:01.568Z,11.88
2023-04-26T05:11:28.182Z,11.90
2023-04-26T05:13:54.890Z,12.40
2023-04-26T05:16:21.596Z,11.60
2023-04-26T05:18:48.212Z,12.57
2023-04-26T05:21:14.885Z,13.68
2023-04-26T05:23:41.733Z,13.13
2023-04-26T05:26:08.664Z,12.63
2023-04-26T05:28:35.369Z,12.98
2023-04-26T05:31:02.027Z,13.43
2023-04-26T05:33:29.101Z,13.55
2023-04-26T05:35:57.961Z,13.05
2023-04-26T05:38:24.797Z,11.80
2023-04-26T05:40:51.509Z,13.90
2023-04-26T05:43:18.052Z,12.02
2023-04-26T05:45:52.007Z,11.73
2023-04-26T05:48:18.863Z,11.15
2023-04-26T05:50:45.442Z,11.30
2023-04-26T05:53:12.490Z,10.32
2023-04-26T05:55:39.197Z,11.98
2023-04-26T05:58:06.595Z,11.98
2023-04-26T06:00:33.812Z,11.20
2023-04-26T06:03:00.720Z,12.52
2023-04-26T06:05:27.848Z,10.23
2023-04-26T06:07:54.582Z,11.15
2023-04-26T06:10:21.538Z,10.75
2023-04-26T06:12:48.153Z,10.48
2023-04-26T06:15:14.838Z,8.73
2023-04-26T06:17:42.125Z,7.75
2023-04-26T06:20:12.973Z,7.05
2023-04-26T06:22:39.835Z,8.15
2023-04-26T06:25:07.319Z,6.95
2023-04-26T06:27:33.904Z,6.38
2023-04-26T06:30:00.604Z,6.53
2023-04-26T06:32:27.407Z,6.07
2023-04-26T06:34:54.050Z,6.53
2023-04-26T06:37:20.521Z,6.85
2023-04-26T06:39:46.989Z,5.65
2023-04-26T06:42:13.639Z,6.40
2023-04-26T06:44:40.431Z,6.38
2023-04-26T06:47:09.434Z,5.22
2023-04-26T06:49:36.162Z,6.03
2023-04-26T06:52:02.838Z,5.57
2023-04-26T06:54:30.460Z,5.30
2023-04-26T06:56:58.370Z,6.03
2023-04-26T06:59:25.996Z,4.40
2023-04-26T07:01:53.137Z,4.65
2023-04-26T07:04:20.854Z,4.28
2023-04-26T07:06:47.645Z,4.90
2023-04-26T07:09:14.182Z,5.68
2023-04-26T07:11:40.723Z,7.35
2023-04-26T07:14:07.507Z,10.07
2023-04-26T07:16:34.150Z,5.90
2023-04-26T07:19:01.054Z,7.70
2023-04-26T07:21:27.582Z,10.15
2023-04-26T07:23:56.983Z,7.30
2023-04-26T07:26:24.899Z,6.07
2023-04-26T07:28:52.488Z,4.75
2023-04-26T07:31:19.942Z,8.23
2023-04-26T07:33:46.536Z,4.57
2023-04-26T07:36:13.699Z,4.75
2023-04-26T07:38:40.514Z,4.25
2023-04-26T07:41:07.126Z,3.97
2023-04-26T07:43:33.717Z,3.55
2023-04-26T07:46:02.140Z,5.15
2023-04-26T07:48:29.173Z,4.43
2023-04-26T07:50:55.993Z,5.20
2023-04-26T07:53:23.077Z,5.03
2023-04-26T07:55:52.807Z,3.80
2023-04-26T07:58:20.091Z,3.55
2023-04-26T08:00:46.901Z,3.95
2023-04-26T08:03:16.879Z,3.38
2023-04-26T08:05:44.400Z,3.25
2023-04-26T08:08:11.098Z,3.95
2023-04-26T08:10:41.532Z,3.97
2023-04-26T08:13:08.200Z,4.40
2023-04-26T08:15:34.791Z,3.90
2023-04-26T08:18:01.436Z,3.85
2023-04-26T08:20:28.048Z,4.70
2023-04-26T08:22:58.103Z,4.43
2023-04-26T08:25:25.197Z,4.13
2023-04-26T08:27:52.496Z,4.25
2023-04-26T08:30:19.944Z,4.38
2023-04-26T08:32:46.961Z,4.18
2023-04-26T08:35:13.661Z,4.22
2023-04-26T08:37:40.261Z,4.75
2023-04-26T08:40:10.968Z,4.47
2023-04-26T08:42:43.840Z,3.67
2023-04-26T08:45:14.235Z,5.50
2023-04-26T08:47:46.265Z,4.57
2023-04-26T08:50:15.089Z,4.85
2023-04-26T08:52:43.215Z,3.97
2023-04-26T08:55:10.404Z,3.75
2023-04-26T08:57:36.977Z,3.38
2023-04-26T09:00:15.707Z,3.60
2023-04-26T09:02:53.636Z,2.97
2023-04-26T09:05:24.281Z,3.25
2023-04-26T09:07:53.401Z,2.83
2023-04-26T09:10:22.452Z,2.90
2023-04-26T09:12:58.549Z,2.65
2023-04-26T09:15:27.130Z,1.80
2023-04-26T09:17:54.627Z,2.00
2023-04-26T09:20:26.009Z,1.85
2023-04-26T09:23:12.924Z,2.13
2023-04-26T09:25:39.787Z,2.55
2023-04-26T09:28:24.257Z,2.22
2023-04-26T09:30:50.992Z,2.00
2023-04-26T09:33:17.655Z,2.67
2023-04-26T09:35:44.677Z,2.75
2023-04-26T09:38:13.814Z,2.58
2023-04-26T09:40:48.253Z,1.83
2023-04-26T09:43:22.327Z,2.40
2023-04-26T09:45:54.141Z,1.98
2023-04-26T09:48:22.408Z,3.58
2023-04-26T09:50:52.520Z,3.83
2023-04-26T09:53:31.524Z,3.70
2023-04-26T09:56:09.646Z,3.90
2023-04-26T09:58:58.315Z,3.55
2023-04-26T10:01:28.370Z,3.88
2023-04-26T10:03:57.759Z,3.60
2023-04-26T10:06:25.406Z,3.08
2023-04-26T10:11:18.927Z,2.17
2023-04-26T10:13:45.737Z,2.38
2023-04-26T10:16:12.391Z,3.42
2023-04-26T10:18:39.285Z,4.40
2023-04-26T10:21:21.496Z,4.40
2023-04-26T10:23:49.859Z,4.38
2023-04-26T10:26:52.825Z,5.10
2023-04-26T10:29:21.010Z,4.70
2023-04-26T10:32:02.865Z,4.47
2023-04-26T10:34:33.877Z,4.45
2023-04-26T10:37:27.215Z,2.97
2023-04-26T10:40:23.556Z,3.58
2023-04-26T10:42:50.282Z,3.88
2023-04-26T10:45:30.217Z,3.25
2023-04-26T10:48:18.304Z,3.63
2023-04-26T10:51:07.951Z,3.40
2023-04-26T10:53:46.418Z,3.60
2023-04-26T10:56:28.898Z,2.95
2023-04-26T10:59:39.722Z,3.17
2023-04-26T11:02:11.424Z,3.05
2023-04-26T11:04:53.505Z,1.70
2023-04-26T11:07:38.779Z,2.83
2023-04-26T11:10:12.592Z,2.33
2023-04-26T11:12:42.326Z,2.30
2023-04-26T11:15:09.149Z,2.65
2023-04-26T11:17:38.617Z,2.35
2023-04-26T11:20:09.764Z,2.00
2023-04-26T11:22:40.140Z,2.40
2023-04-26T11:25:07.018Z,2.50
2023-04-26T11:27:33.532Z,1.42
2023-04-26T11:30:05.145Z,1.40
2023-04-26T11:32:33.188Z,1.38
2023-04-26T11:35:02.507Z,1.10
2023-04-26T11:37:29.106Z,1.23
2023-04-26T11:39:57.699Z,0.82
2023-04-26T11:42:27.298Z,0.88
2023-04-26T11:44:54.371Z,1.40
2023-04-26T11:47:22.854Z,2.05
2023-04-26T11:49:49.669Z,1.35
2023-04-26T11:52:16.442Z,1.60
2023-04-26T11:54:44.435Z,2.00
2023-04-26T11:57:17.297Z,1.15
2023-04-26T11:59:44.328Z,0.90
2023-04-26T12:02:11.797Z,1.13
2023-04-26T12:04:42.231Z,1.13
2023-04-26T12:07:09.612Z,1.00
2023-04-26T12:09:41.220Z,1.42
2023-04-26T12:12:08.310Z,1.50
2023-04-26T12:14:36.816Z,1.13
2023-04-26T12:17:06.032Z,1.00
2023-04-26T12:19:37.122Z,0.70
2023-04-26T12:22:04.641Z,1.10
2023-04-26T12:24:36.787Z,0.60
2023-04-26T12:27:07.905Z,0.40
2023-04-26T12:29:35.676Z,0.52
2023-04-26T12:32:03.573Z,0.98
2023-04-26T12:34:30.266Z,0.50
2023-04-26T12:36:56.822Z,0.47
2023-04-26T12:39:23.439Z,0.40
2023-04-26T12:41:50.014Z,0.60
2023-04-26T12:44:16.572Z,0.70
2023-04-26T12:46:43.581Z,0.60
2023-04-26T12:49:10.190Z,0.60
2023-04-26T12:51:36.754Z,0.85
2023-04-26T12:54:03.606Z,0.60
2023-04-26T12:56:30.473Z,0.60
2023-04-26T12:58:57.175Z,0.70
2023-04-26T13:01:23.794Z,0.80
2023-04-26T13:03:50.549Z,1.00
2023-04-26T13:06:17.898Z,0.70
2023-04-26T13:08:44.453Z,3.17
2023-04-26T13:11:10.962Z,3.17
2023-04-26T13:13:44.392Z,0.82
2023-04-26T13:16:12.814Z,0.80
2023-04-26T13:18:39.970Z,0.93
2023-04-26T13:21:06.711Z,1.77
2023-04-26T13:23:33.272Z,5.55
2023-04-26T13:25:59.783Z,0.90
2023-04-26T13:28:26.242Z,0.95
2023-04-26T13:30:52.910Z,0.60
2023-04-26T13:33:21.420Z,0.70
2023-04-26T13:35:48.217Z,1.20
2023-04-26T13:38:16.424Z,0.43
2023-04-26T13:40:43.816Z,9.63
2023-04-26T13:43:10.338Z,1.40
2023-04-26T13:45:37.462Z,0.88
2023-04-26T13:48:04.280Z,1.10
2023-04-26T13:50:31.046Z,0.75
2023-04-26T13:52:57.622Z,0.80
2023-04-26T13:55:24.316Z,0.60
2023-04-26T13:57:51.037Z,0.60
2023-04-26T14:00:17.910Z,0.70
2023-04-26T14:02:44.679Z,0.90
2023-04-26T14:05:11.711Z,0.70
2023-04-26T14:07:38.745Z,0.50
2023-04-26T14:10:05.800Z,0.82
2023-04-26T14:12:32.362Z,2.45
2023-04-26T14:14:58.962Z,25.10
2023-04-26T14:17:25.713Z,37.83
2023-04-26T14:19:54.651Z,39.25
2023-04-26T14:22:21.420Z,2.85
2023-04-26T14:24:47.993Z,0.50
2023-04-26T14:27:14.834Z,0.88
2023-04-26T14:29:41.461Z,0.60
2023-04-26T14:32:08.056Z,1.73
2023-04-26T14:34:39.047Z,1.70
2023-04-26T14:37:06.760Z,1.85
2023-04-26T14:39:33.580Z,0.80
2023-04-26T14:42:00.183Z,0.88
2023-04-26T14:44:27.282Z,0.82
2023-04-26T14:46:53.789Z,0.75
2023-04-26T14:49:20.567Z,0.45
2023-04-26T14:51:47.517Z,1.10
2023-04-26T14:54:15.254Z,0.70
2023-04-26T14:56:41.834Z,0.45
2023-04-26T14:59:08.373Z,0.95
2023-04-26T15:01:34.942Z,1.63
2023-04-26T15:04:01.896Z,0.60
2023-04-26T15:06:28.865Z,1.02
2023-04-26T15:08:55.485Z,0.38
2023-04-26T15:11:22.041Z,1.20
2023-04-26T15:13:48.614Z,0.40
2023-04-26T15:16:15.499Z,0.40
2023-04-26T15:18:42.377Z,0.50
2023-04-26T15:21:09.282Z,0.20
2023-04-26T15:23:36.007Z,0.60
2023-04-26T15:26:03.613Z,0.50
2023-04-26T15:28:30.485Z,0.30
2023-04-26T15:31:04.205Z,0.40
2023-04-26T15:33:31.105Z,0.80
2023-04-26T15:35:57.655Z,0.60
2023-04-26T15:38:24.307Z,0.60
2023-04-26T15:40:51.214Z,0.60
2023-04-26T15:43:18.327Z,0.40
2023-04-26T15:45:49.083Z,0.30
2023-04-26T15:48:16.018Z,0.32
2023-04-26T15:50:42.583Z,0.40
2023-04-26T15:53:09.259Z,0.40
2023-04-26T15:55:35.852Z,0.40
2023-04-26T15:58:02.521Z,0.40
2023-04-26T16:00:29.185Z,0.40
2023-04-26T16:02:55.957Z,0.20
2023-04-26T16:05:22.748Z,0.20
2023-04-26T16:07:49.236Z,0.52
2023-04-26T16:10:16.368Z,0.30
2023-04-26T16:12:44.578Z,0.30
2023-04-26T16:15:11.522Z,0.30
2023-04-26T16:17:38.939Z,0.40
2023-04-26T16:20:07.148Z,0.77
2023-04-26T16:22:34.654Z,0.20
2023-04-26T16:25:01.607Z,0.30
2023-04-26T16:27:28.142Z,0.30
2023-04-26T16:29:54.738Z,0.38
2023-04-26T16:32:21.911Z,0.40
2023-04-26T16:34:48.517Z,0.28
2023-04-26T16:37:15.786Z,0.50
2023-04-26T16:39:42.275Z,0.77
2023-04-26T16:42:08.822Z,0.52
2023-04-26T16:44:35.386Z,0.50
2023-04-26T16:47:01.899Z,0.43
2023-04-26T16:49:28.425Z,0.47
2023-04-26T16:51:58.959Z,0.50
2023-04-26T16:54:26.231Z,0.43
2023-04-26T16:56:54.813Z,1.00
2023-04-26T16:59:21.444Z,1.58
2023-04-26T17:01:48.054Z,0.70
2023-04-26T17:04:15.072Z,0.60
2023-04-26T17:06:41.803Z,0.45
2023-04-26T17:09:08.799Z,0.52
2023-04-26T17:11:37.368Z,0.57
2023-04-26T17:14:04.592Z,0.40
2023-04-26T17:16:31.246Z,0.77
2023-04-26T17:18:58.593Z,0.50
2023-04-26T17:21:25.481Z,0.50
2023-04-26T17:23:52.520Z,0.32
2023-04-26T17:26:19.131Z,0.90
2023-04-26T17:28:45.810Z,0.35
2023-04-26T17:31:13.137Z,0.55
2023-04-26T17:33:39.714Z,0.30
2023-04-26T17:36:06.518Z,0.45
2023-04-26T17:38:33.094Z,0.63
2023-04-26T17:40:59.746Z,0.63
2023-04-26T17:43:26.275Z,0.80
2023-04-26T17:45:52.986Z,0.68
2023-04-26T17:48:19.684Z,0.80
2023-04-26T17:50:46.360Z,0.90
2023-04-26T17:53:13.047Z,0.47
2023-04-26T17:55:40.597Z,0.82
2023-04-26T17:58:07.082Z,1.10
2023-04-26T18:00:33.854Z,0.60
2023-04-26T18:03:03.016Z,0.88
2023-04-26T18:05:29.719Z,0.98
2023-04-26T18:07:56.589Z,1.00
2023-04-26T18:10:23.286Z,2.17
2023-04-26T18:12:50.693Z,2.67
2023-04-26T18:15:17.478Z,1.75
2023-04-26T18:17:44.122Z,0.75
2023-04-26T18:20:13.075Z,0.90
2023-04-26T18:22:40.083Z,1.23
2023-04-26T18:25:07.217Z,1.88
2023-04-26T18:27:33.839Z,1.80
2023-04-26T18:30:00.755Z,1.70
2023-04-26T18:32:27.373Z,1.40
2023-04-26T18:34:53.953Z,1.10
2023-04-26T18:37:20.975Z,0.80
2023-04-26T18:39:48.753Z,1.25
2023-04-26T18:42:15.470Z,0.80
2023-04-26T18:44:42.052Z,0.70
2023-04-26T18:47:08.653Z,1.00
2023-04-26T18:49:35.228Z,1.30
2023-04-26T18:52:02.041Z,8.85
2023-04-26T18:54:30.930Z,1.45
2023-04-26T18:56:57.480Z,1.20
2023-04-26T18:59:24.027Z,1.30
2023-04-26T19:01:50.820Z,1.33
2023-04-26T19:04:17.671Z,1.80
2023-04-26T19:06:44.286Z,2.38
2023-04-26T19:09:11.856Z,1.80
2023-04-26T19:11:38.853Z,1.23
2023-04-26T19:14:05.715Z,1.67
2023-04-26T19:16:32.403Z,1.83
2023-04-26T19:18:59.044Z,1.20
2023-04-26T19:21:25.649Z,1.50
2023-04-26T19:23:52.309Z,2.75
2023-04-26T19:26:18.852Z,2.40
2023-04-26T19:28:45.505Z,2.45
2023-04-26T19:31:12.141Z,3.10
2023-04-26T19:33:38.727Z,4.05
2023-04-26T19:36:05.677Z,4.45
2023-04-26T19:38:32.502Z,4.65
2023-04-26T19:41:01.189Z,4.10
2023-04-26T19:43:30.181Z,3.97
2023-04-26T19:45:56.721Z,3.88
2023-04-26T19:48:23.283Z,3.78
2023-04-26T19:50:49.836Z,3.40
2023-04-26T19:53:16.493Z,4.95
2023-04-26T19:55:43.022Z,6.60
2023-04-26T19:58:12.873Z,6.03
2023-04-26T20:00:40.310Z,4.47
2023-04-26T20:03:07.280Z,3.90
2023-04-26T20:05:34.145Z,4.05
2023-04-26T20:08:01.392Z,4.10
2023-04-26T20:10:32.164Z,3.50
2023-04-26T20:12:59.363Z,3.10
2023-04-26T20:15:27.622Z,3.42
2023-04-26T20:17:54.364Z,4.47
2023-04-26T20:20:21.312Z,2.88
2023-04-26T20:22:47.890Z,2.88
2023-04-26T20:25:14.610Z,4.00
2023-04-26T20:27:41.291Z,2.95
2023-04-26T20:30:08.489Z,3.00
2023-04-26T20:32:35.339Z,2.22
2023-04-26T20:35:01.940Z,2.60
2023-04-26T20:37:29.123Z,3.88
2023-04-26T20:39:55.618Z,4.03
2023-04-26T20:42:23.122Z,2.85
2023-04-26T20:44:49.690Z,5.90
2023-04-26T20:47:16.636Z,2.80
2023-04-26T20:49:43.157Z,3.88
2023-04-26T20:52:09.787Z,3.20
2023-04-26T20:54:36.480Z,3.03
2023-04-26T20:57:04.143Z,3.25
2023-04-26T20:59:30.938Z,2.22
2023-04-26T21:01:57.691Z,3.65
2023-04-26T21:04:24.702Z,3.30
2023-04-26T21:06:51.515Z,3.65
2023-04-26T21:09:18.192Z,2.70
2023-04-26T21:11:44.802Z,2.35
2023-04-26T21:14:11.318Z,1.83
2023-04-26T21:16:37.888Z,2.05
2023-04-26T21:19:05.401Z,2.30
2023-04-26T21:21:32.665Z,2.45
2023-04-26T21:23:59.637Z,2.72
2023-04-26T21:26:26.284Z,3.85
2023-04-26T21:28:52.957Z,3.75
2023-04-26T21:31:19.497Z,3.83
2023-04-26T21:33:46.019Z,3.28
2023-04-26T21:36:12.521Z,2.90
2023-04-26T21:38:39.002Z,2.40
2023-04-26T21:41:05.541Z,13.55
2023-04-26T21:43:32.261Z,8.48
2023-04-26T21:45:58.903Z,6.38
2023-04-26T21:48:26.473Z,6.65
2023-04-26T21:50:53.214Z,7.13
2023-04-26T21:53:19.734Z,7.30
2023-04-26T21:55:53.390Z,6.40
2023-04-26T21:58:21.008Z,6.80
2023-04-26T22:00:47.873Z,6.95
2023-04-26T22:03:14.866Z,5.70
2023-04-26T22:05:41.674Z,4.32
2023-04-26T22:08:08.251Z,4.38
2023-04-26T22:10:35.528Z,2.95
2023-04-26T22:13:02.201Z,3.63
2023-04-26T22:15:28.969Z,4.65
2023-04-26T22:17:55.628Z,5.78
2023-04-26T22:20:22.592Z,4.75
2023-04-26T22:22:49.209Z,4.22
2023-04-26T22:25:15.905Z,4.18
2023-04-26T22:27:42.438Z,4.93
2023-04-26T22:30:22.973Z,6.38
2023-04-26T22:32:55.624Z,6.22
2023-04-26T22:35:23.721Z,5.55
2023-04-26T22:37:50.850Z,7.07
2023-04-26T22:40:18.000Z,5.68
2023-04-26T22:42:45.166Z,6.10
2023-04-26T22:45:12.621Z,6.32
2023-04-26T22:47:40.876Z,5.22
2023-04-26T22:50:08.151Z,5.40
2023-04-26T22:52:36.110Z,4.28
2023-04-26T22:55:02.849Z,4.35
2023-04-26T22:57:30.050Z,6.40
2023-04-26T22:59:56.860Z,5.38
2023-04-26T23:02:23.504Z,4.45
2023-04-26T23:04:50.243Z,4.30
2023-04-26T23:07:16.879Z,4.28
2023-04-26T23:09:43.519Z,3.85
2023-04-26T23:12:10.127Z,3.65
2023-04-26T23:14:38.461Z,4.90
2023-04-26T23:17:05.693Z,5.68
2023-04-26T23:19:33.193Z,5.60
2023-04-26T23:22:00.174Z,5.50
2023-04-26T23:24:27.039Z,4.60
2023-04-26T23:26:53.863Z,5.60
2023-04-26T23:29:20.436Z,5.05
2023-04-26T23:31:47.045Z,5.15
2023-04-26T23:34:13.659Z,4.95
2023-04-26T23:36:40.196Z,4.43
2023-04-26T23:39:07.268Z,4.35
2023-04-26T23:41:33.779Z,4.20
2023-04-26T23:44:00.361Z,4.70
2023-04-26T23:46:27.013Z,5.15
2023-04-26T23:48:53.652Z,4.22
2023-04-26T23:51:20.189Z,4.38
2023-04-26T23:53:46.794Z,3.85
2023-04-26T23:56:13.350Z,4.50
2023-04-26T23:58:40.001Z,4.30
